createdAt,value
2024-01-30T00:00:39.759Z,0.40
2024-01-30T00:03:06.925Z,0.40
2024-01-30T00:05:33.869Z,0.40
2024-01-30T00:08:01.380Z,0.40
2024-01-30T00:10:28.438Z,0.30
2024-01-30T00:12:55.691Z,0.30
2024-01-30T00:15:22.776Z,0.30
2024-01-30T00:17:50.155Z,0.20
2024-01-30T00:20:17.348Z,0.20
2024-01-30T00:22:44.458Z,0.20
2024-01-30T00:25:11.502Z,0.20
2024-01-30T00:27:38.483Z,0.10
2024-01-30T00:30:06.148Z,0.10
2024-01-30T00:32:33.095Z,0.10
2024-01-30T00:35:00.389Z,0.00
2024-01-30T00:37:27.712Z,0.00
2024-01-30T00:39:55.244Z,0.00
2024-01-30T00:42:25.036Z,0.00
2024-01-30T00:44:52.121Z,0.00
2024-01-30T00:47:18.941Z,0.00
2024-01-30T00:49:46.053Z,0.00
2024-01-30T00:52:13.515Z,0.00
2024-01-30T00:54:40.511Z,0.00
2024-01-30T00:57:07.561Z,-0.10
2024-01-30T00:59:34.580Z,-0.10
2024-01-30T01:02:01.763Z,-0.10
2024-01-30T01:04:29.315Z,-0.10
2024-01-30T01:06:56.468Z,-0.20
2024-01-30T01:09:23.768Z,-0.20
2024-01-30T01:11:50.785Z,-0.20
2024-01-30T01:14:17.757Z,-0.30
2024-01-30T01:16:44.838Z,-0.30
2024-01-30T01:19:11.734Z,-0.30
2024-01-30T01:21:38.912Z,-0.40
2024-01-30T01:24:06.754Z,-0.40
2024-01-30T01:26:34.113Z,-0.40
2024-01-30T01:29:01.005Z,-0.40
2024-01-30T01:31:30.934Z,-0.50
2024-01-30T01:33:58.239Z,-0.50
2024-01-30T01:36:25.083Z,-0.50
2024-01-30T01:38:51.920Z,-0.50
2024-01-30T01:41:18.877Z,-0.50
2024-01-30T01:43:45.744Z,-0.50
2024-01-30T01:46:12.800Z,-0.50
2024-01-30T01:48:41.201Z,-0.50
2024-01-30T01:51:08.618Z,-0.50
2024-01-30T01:53:35.489Z,-0.50
2024-01-30T01:56:02.481Z,-0.50
2024-01-30T01:58:30.565Z,-0.50
2024-01-30T02:00:59.305Z,-0.60
2024-01-30T02:03:26.232Z,-0.60
2024-01-30T02:05:53.244Z,-0.60
2024-01-30T02:08:20.280Z,-0.60
2024-01-30T02:10:47.312Z,-0.60
2024-01-30T02:13:14.223Z,-0.70
2024-01-30T02:15:41.091Z,-0.70
2024-01-30T02:18:08.053Z,-0.70
2024-01-30T02:20:38.576Z,-0.70
2024-01-30T02:23:06.185Z,-0.70
2024-01-30T02:25:47.730Z,-0.70
2024-01-30T02:28:15.216Z,-0.70
2024-01-30T02:30:44.037Z,-0.70
2024-01-30T02:33:10.863Z,-0.70
2024-01-30T02:35:37.738Z,-0.70
2024-01-30T02:38:04.783Z,-0.70
2024-01-30T02:40:31.890Z,-0.70
2024-01-30T02:43:03.067Z,-0.70
2024-01-30T02:45:30.233Z,-0.70
2024-01-30T02:47:57.145Z,-0.70
2024-01-30T02:50:24.116Z,-0.80
2024-01-30T02:52:51.137Z,-0.80
2024-01-30T02:55:20.875Z,-0.80
2024-01-30T02:57:47.965Z,-0.90
2024-01-30T03:00:15.343Z,-0.80
2024-01-30T03:02:42.288Z,-0.80
2024-01-30T03:05:09.712Z,-0.80
2024-01-30T03:07:36.551Z,-0.80
2024-01-30T03:10:03.729Z,-0.80
2024-01-30T03:12:30.493Z,-0.80
2024-01-30T03:14:57.354Z,-0.80
2024-01-30T03:17:25.472Z,-0.80
2024-01-30T03:19:52.560Z,-0.80
2024-01-30T03:22:19.612Z,-0.90
2024-01-30T03:24:46.599Z,-0.90
2024-01-30T03:27:13.328Z,-0.90
2024-01-30T03:29:40.349Z,-0.90
2024-01-30T03:32:07.147Z,-0.90
2024-01-30T03:34:34.087Z,-1.00
2024-01-30T03:37:01.003Z,-1.00
2024-01-30T03:39:27.800Z,-1.00
2024-01-30T03:41:54.643Z,-1.10
2024-01-30T03:44:21.475Z,-1.10
2024-01-30T03:46:48.271Z,-1.10
2024-01-30T03:49:15.239Z,-1.10
2024-01-30T03:51:42.109Z,-1.10
2024-01-30T03:54:09.294Z,-1.10
2024-01-30T03:56:36.143Z,-1.10
2024-01-30T03:59:03.924Z,-1.10
2024-01-30T04:01:30.898Z,-1.00
2024-01-30T04:03:57.884Z,-1.10
2024-01-30T04:06:24.943Z,-1.10
2024-01-30T04:08:51.739Z,-1.10
2024-01-30T04:11:20.819Z,-1.10
2024-01-30T04:13:49.499Z,-1.10
2024-01-30T04:16:23.811Z,-1.10
2024-01-30T04:18:51.166Z,-1.10
2024-01-30T04:21:17.956Z,-1.10
2024-01-30T04:23:44.777Z,-1.10
2024-01-30T04:26:12.049Z,-1.10
2024-01-30T04:28:38.884Z,-1.20
2024-01-30T04:31:05.756Z,-1.10
2024-01-30T04:33:32.622Z,-1.20
2024-01-30T04:35:59.487Z,-1.20
2024-01-30T04:38:26.438Z,-1.10
2024-01-30T04:40:53.266Z,-1.20
2024-01-30T04:43:20.480Z,-1.20
2024-01-30T04:45:47.468Z,-1.20
2024-01-30T04:48:14.761Z,-1.20
2024-01-30T04:50:41.624Z,-1.20
2024-01-30T04:53:09.012Z,-1.30
2024-01-30T04:55:37.571Z,-1.30
2024-01-30T04:58:04.585Z,-1.30
2024-01-30T05:00:31.475Z,-1.20
2024-01-30T05:02:58.201Z,-1.20
2024-01-30T05:05:25.119Z,-1.20
2024-01-30T05:07:52.086Z,-1.20
2024-01-30T05:10:19.290Z,-1.20
2024-01-30T05:12:46.210Z,-1.20
2024-01-30T05:15:13.026Z,-1.20
2024-01-30T05:17:39.841Z,-1.20
2024-01-30T05:20:07.469Z,-1.20
2024-01-30T05:22:34.345Z,-1.20
2024-01-30T05:25:01.374Z,-1.20
2024-01-30T05:27:28.242Z,-1.20
2024-01-30T05:29:55.123Z,-1.30
2024-01-30T05:32:21.994Z,-1.30
2024-01-30T05:34:48.861Z,-1.30
2024-01-30T05:37:18.102Z,-1.30
2024-01-30T05:39:45.327Z,-1.30
2024-01-30T05:42:12.127Z,-1.30
2024-01-30T05:44:38.955Z,-1.30
2024-01-30T05:47:07.294Z,-1.30
2024-01-30T05:49:34.419Z,-1.30
2024-01-30T05:52:15.107Z,-1.30
2024-01-30T05:54:41.949Z,-1.30
2024-01-30T05:57:08.749Z,-1.40
2024-01-30T05:59:39.810Z,-1.40
2024-01-30T06:02:08.888Z,-1.40
2024-01-30T06:04:35.994Z,-1.40
2024-01-30T06:07:03.272Z,-1.40
2024-01-30T06:09:30.353Z,-1.40
2024-01-30T06:11:57.277Z,-1.40
2024-01-30T06:14:24.631Z,-1.40
2024-01-30T06:16:51.587Z,-1.40
2024-01-30T06:19:18.561Z,-1.40
2024-01-30T06:21:46.618Z,-1.40
2024-01-30T06:24:13.600Z,-1.40
2024-01-30T06:26:40.940Z,-1.40
2024-01-30T06:29:08.634Z,-1.30
2024-01-30T06:31:44.228Z,-1.30
2024-01-30T06:34:12.363Z,-1.30
2024-01-30T06:36:39.824Z,-1.30
2024-01-30T06:39:06.829Z,-1.30
2024-01-30T06:41:33.667Z,-1.30
2024-01-30T06:44:00.715Z,-1.30
2024-01-30T06:46:28.887Z,-1.30
2024-01-30T06:48:55.897Z,-1.30
2024-01-30T06:51:22.813Z,-1.30
2024-01-30T06:53:49.756Z,-1.30
2024-01-30T06:56:21.892Z,-1.30
2024-01-30T06:58:49.798Z,-1.30
2024-01-30T07:01:17.259Z,-1.30
2024-01-30T07:03:44.583Z,-1.30
2024-01-30T07:06:14.424Z,-1.30
2024-01-30T07:08:41.286Z,-1.30
2024-01-30T07:11:08.683Z,-1.30
2024-01-30T07:13:36.117Z,-1.30
2024-01-30T07:16:03.178Z,-1.30
2024-01-30T07:18:30.143Z,-1.30
2024-01-30T07:20:57.104Z,-1.20
2024-01-30T07:23:23.925Z,-1.20
2024-01-30T07:25:51.572Z,-1.20
2024-01-30T07:28:18.742Z,-1.20
2024-01-30T07:30:45.755Z,-1.20
2024-01-30T07:33:12.706Z,-1.10
2024-01-30T07:35:39.594Z,-1.10
2024-01-30T07:38:06.488Z,-1.00
2024-01-30T07:40:34.583Z,-1.00
2024-01-30T07:43:02.195Z,-0.90
2024-01-30T07:45:33.633Z,-0.80
2024-01-30T07:48:03.412Z,-0.80
2024-01-30T07:50:30.396Z,-0.70
2024-01-30T07:52:58.213Z,-0.60
2024-01-30T07:55:28.697Z,-0.50
2024-01-30T07:57:56.547Z,-0.40
2024-01-30T08:00:25.752Z,-0.30
2024-01-30T08:02:55.648Z,-0.20
2024-01-30T08:05:25.964Z,-0.10
2024-01-30T08:07:53.087Z,0.10
2024-01-30T08:10:20.465Z,0.20
2024-01-30T08:12:48.182Z,0.30
2024-01-30T08:15:15.259Z,0.50
2024-01-30T08:17:42.422Z,0.60
2024-01-30T08:20:11.836Z,0.80
2024-01-30T08:22:42.415Z,1.00
2024-01-30T08:25:10.997Z,1.20
2024-01-30T08:27:39.470Z,1.40
2024-01-30T08:30:08.153Z,1.70
2024-01-30T08:32:36.297Z,2.00
2024-01-30T08:35:06.619Z,2.20
2024-01-30T08:37:33.666Z,2.60
2024-01-30T08:40:01.334Z,2.70
2024-01-30T08:42:28.546Z,2.90
2024-01-30T08:44:55.507Z,3.00
2024-01-30T08:47:22.632Z,3.10
2024-01-30T08:49:49.684Z,3.20
2024-01-30T08:52:16.660Z,3.30
2024-01-30T08:54:43.582Z,3.30
2024-01-30T08:57:10.485Z,3.20
2024-01-30T08:59:37.344Z,3.10
2024-01-30T09:02:12.045Z,3.20
2024-01-30T09:04:40.613Z,3.20
2024-01-30T09:07:11.063Z,3.20
2024-01-30T09:09:42.213Z,3.20
2024-01-30T09:12:12.531Z,3.10
2024-01-30T09:14:40.599Z,3.00
2024-01-30T09:17:07.443Z,3.00
2024-01-30T09:19:34.773Z,3.00
2024-01-30T09:22:01.869Z,3.00
2024-01-30T09:24:29.337Z,3.00
2024-01-30T09:26:57.242Z,3.10
2024-01-30T09:29:29.104Z,3.20
2024-01-30T09:31:59.047Z,3.40
2024-01-30T09:34:27.242Z,3.60
2024-01-30T09:36:54.178Z,3.70
2024-01-30T09:39:21.403Z,3.90
2024-01-30T09:42:02.347Z,4.10
2024-01-30T09:44:34.465Z,4.50
2024-01-30T09:47:04.934Z,4.90
2024-01-30T09:49:34.284Z,5.40
2024-01-30T09:52:01.842Z,5.90
2024-01-30T09:54:35.437Z,6.30
2024-01-30T09:57:03.881Z,6.60
2024-01-30T09:59:31.011Z,6.70
2024-01-30T10:01:58.670Z,6.80
2024-01-30T10:04:25.719Z,6.60
2024-01-30T10:06:52.931Z,6.60
2024-01-30T10:09:20.377Z,6.70
2024-01-30T10:11:47.404Z,6.90
2024-01-30T10:14:14.358Z,6.90
2024-01-30T10:16:41.327Z,6.90
2024-01-30T10:19:08.461Z,6.90
2024-01-30T10:21:36.251Z,7.20
2024-01-30T10:24:03.138Z,7.60
2024-01-30T10:26:30.446Z,7.60
2024-01-30T10:28:57.323Z,7.70
2024-01-30T10:31:25.277Z,7.60
2024-01-30T10:33:54.522Z,7.50
2024-01-30T10:36:29.592Z,7.40
2024-01-30T10:39:00.858Z,7.40
2024-01-30T10:41:29.094Z,7.40
2024-01-30T10:44:11.564Z,7.50
2024-01-30T10:46:46.065Z,7.60
2024-01-30T10:49:14.173Z,7.60
2024-01-30T10:51:41.922Z,7.80
2024-01-30T10:54:10.444Z,8.00
2024-01-30T10:56:38.035Z,8.30
2024-01-30T10:59:05.279Z,8.60
2024-01-30T11:01:32.727Z,9.10
2024-01-30T11:04:00.127Z,9.30
2024-01-30T11:06:27.293Z,9.50
2024-01-30T11:09:10.974Z,10.10
2024-01-30T11:12:02.974Z,11.00
2024-01-30T11:14:34.115Z,12.50
2024-01-30T11:17:01.457Z,14.00
2024-01-30T11:19:31.679Z,15.00
2024-01-30T11:21:58.927Z,14.90
2024-01-30T11:24:26.292Z,14.60
2024-01-30T11:27:00.599Z,14.60
2024-01-30T11:29:30.576Z,14.60
2024-01-30T11:32:00.115Z,15.20
2024-01-30T11:34:27.494Z,15.20
2024-01-30T11:37:01.410Z,15.00
2024-01-30T11:39:28.675Z,14.60
2024-01-30T11:41:56.397Z,14.30
2024-01-30T11:44:24.174Z,14.10
2024-01-30T11:46:52.313Z,13.50
2024-01-30T11:49:20.163Z,13.10
2024-01-30T11:51:49.642Z,12.40
2024-01-30T11:54:19.824Z,11.90
2024-01-30T11:56:46.757Z,11.60
2024-01-30T11:59:13.532Z,11.30
2024-01-30T12:01:40.548Z,11.00
2024-01-30T12:04:10.398Z,10.80
2024-01-30T12:06:37.987Z,10.50
2024-01-30T12:09:05.400Z,10.30
2024-01-30T12:11:32.637Z,10.20
2024-01-30T12:13:59.824Z,10.10
2024-01-30T12:16:26.854Z,10.00
2024-01-30T12:19:02.522Z,10.00
2024-01-30T12:21:30.406Z,10.00
2024-01-30T12:24:01.250Z,10.00
2024-01-30T12:26:28.384Z,10.00
2024-01-30T12:28:56.568Z,10.30
2024-01-30T12:31:28.617Z,10.50
2024-01-30T12:33:59.954Z,10.90
2024-01-30T12:36:27.268Z,11.30
2024-01-30T12:38:54.182Z,12.30
2024-01-30T12:41:21.476Z,13.10
2024-01-30T12:43:49.033Z,13.50
2024-01-30T12:46:18.674Z,13.40
2024-01-30T12:48:46.479Z,13.40
2024-01-30T12:51:13.377Z,12.90
2024-01-30T12:53:40.104Z,12.90
2024-01-30T12:56:07.009Z,13.20
2024-01-30T12:58:33.860Z,13.40
2024-01-30T13:01:00.846Z,13.70
2024-01-30T13:03:28.244Z,13.80
2024-01-30T13:05:55.880Z,14.00
2024-01-30T13:08:23.009Z,14.40
2024-01-30T13:10:50.393Z,15.20
2024-01-30T13:13:20.520Z,16.00
2024-01-30T13:15:49.188Z,16.50
2024-01-30T13:18:16.398Z,17.00
2024-01-30T13:20:43.506Z,17.10
2024-01-30T13:23:10.595Z,17.00
2024-01-30T13:25:37.469Z,16.90
2024-01-30T13:28:04.889Z,16.00
2024-01-30T13:30:31.862Z,15.50
2024-01-30T13:32:58.565Z,15.10
2024-01-30T13:35:26.568Z,14.40
2024-01-30T13:37:53.477Z,13.80
2024-01-30T13:40:20.245Z,13.30
2024-01-30T13:42:47.104Z,12.90
2024-01-30T13:45:13.940Z,12.60
2024-01-30T13:47:40.900Z,12.50
2024-01-30T13:50:08.792Z,12.40
2024-01-30T13:52:41.661Z,12.40
2024-01-30T13:55:12.187Z,12.40
2024-01-30T13:57:39.426Z,12.50
2024-01-30T14:00:10.106Z,12.40
2024-01-30T14:02:40.124Z,12.20
2024-01-30T14:05:07.328Z,12.10
2024-01-30T14:07:34.672Z,11.80
2024-01-30T14:10:01.704Z,11.60
2024-01-30T14:12:28.497Z,11.40
2024-01-30T14:14:55.274Z,11.30
2024-01-30T14:17:22.359Z,11.20
2024-01-30T14:19:49.386Z,11.10
2024-01-30T14:22:16.517Z,11.00
2024-01-30T14:24:43.478Z,11.00
2024-01-30T14:27:11.738Z,11.00
2024-01-30T14:29:39.080Z,10.90
2024-01-30T14:32:06.476Z,10.90
2024-01-30T14:34:34.478Z,10.90
2024-01-30T14:37:01.341Z,10.90
2024-01-30T14:39:28.234Z,10.90
2024-01-30T14:41:55.207Z,10.90
2024-01-30T14:44:22.104Z,10.80
2024-01-30T14:46:48.952Z,10.80
2024-01-30T14:49:16.665Z,10.80
2024-01-30T14:51:43.789Z,10.70
2024-01-30T14:54:10.672Z,10.60
2024-01-30T14:56:37.357Z,10.60
2024-01-30T14:59:04.265Z,10.50
2024-01-30T15:01:31.014Z,10.40
2024-01-30T15:03:58.128Z,10.30
2024-01-30T15:06:26.043Z,10.20
2024-01-30T15:08:54.172Z,10.10
2024-01-30T15:11:21.502Z,10.00
2024-01-30T15:13:48.361Z,10.00
2024-01-30T15:16:15.300Z,9.90
2024-01-30T15:18:42.275Z,9.80
2024-01-30T15:21:09.148Z,9.80
2024-01-30T15:23:36.334Z,9.70
2024-01-30T15:26:03.323Z,9.60
2024-01-30T15:28:39.851Z,9.50
2024-01-30T15:31:07.542Z,9.50
2024-01-30T15:33:34.771Z,9.50
2024-01-30T15:36:02.516Z,9.40
2024-01-30T15:38:30.301Z,9.30
2024-01-30T15:40:57.400Z,9.30
2024-01-30T15:43:25.238Z,9.30
2024-01-30T15:45:52.700Z,9.30
2024-01-30T15:48:20.588Z,9.20
2024-01-30T15:50:47.469Z,9.20
2024-01-30T15:53:14.334Z,9.20
2024-01-30T15:55:41.252Z,9.20
2024-01-30T15:58:08.320Z,9.10
2024-01-30T16:00:35.360Z,9.10
2024-01-30T16:03:02.221Z,9.00
2024-01-30T16:05:29.106Z,9.00
2024-01-30T16:07:55.845Z,8.90
2024-01-30T16:10:22.908Z,8.80
2024-01-30T16:12:50.762Z,8.80
2024-01-30T16:15:19.189Z,8.70
2024-01-30T16:17:46.631Z,8.70
2024-01-30T16:20:15.718Z,8.60
2024-01-30T16:22:42.921Z,8.60
2024-01-30T16:25:11.209Z,8.50
2024-01-30T16:27:38.106Z,8.50
2024-01-30T16:30:05.171Z,8.50
2024-01-30T16:32:32.455Z,8.50
2024-01-30T16:34:59.857Z,8.50
2024-01-30T16:37:26.844Z,8.40
2024-01-30T16:39:53.625Z,8.30
2024-01-30T16:42:23.715Z,8.30
2024-01-30T16:44:50.484Z,8.20
2024-01-30T16:47:17.297Z,8.20
2024-01-30T16:49:44.176Z,8.20
2024-01-30T16:52:11.251Z,8.10
2024-01-30T16:54:38.205Z,8.10
2024-01-30T16:57:05.190Z,8.20
2024-01-30T16:59:45.298Z,8.10
2024-01-30T17:02:16.260Z,8.10
2024-01-30T17:04:46.680Z,8.00
2024-01-30T17:07:16.032Z,8.00
2024-01-30T17:09:51.002Z,8.00
2024-01-30T17:12:23.691Z,8.00
2024-01-30T17:15:06.187Z,8.00
2024-01-30T17:17:49.652Z,8.00
2024-01-30T17:20:37.314Z,8.00
2024-01-30T17:23:09.624Z,8.00
2024-01-30T17:25:38.331Z,8.00
2024-01-30T17:28:05.937Z,7.90
2024-01-30T17:30:33.108Z,7.80
2024-01-30T17:33:00.811Z,7.80
2024-01-30T17:35:28.279Z,7.80
2024-01-30T17:37:55.561Z,7.80
2024-01-30T17:40:22.763Z,7.80
2024-01-30T17:42:50.193Z,7.80
2024-01-30T17:45:17.579Z,7.80
2024-01-30T17:47:45.322Z,7.70
2024-01-30T17:50:18.380Z,7.70
2024-01-30T17:52:50.121Z,7.70
2024-01-30T17:55:17.551Z,7.70
2024-01-30T17:57:49.777Z,7.70
2024-01-30T18:00:19.554Z,7.70
2024-01-30T18:02:47.228Z,7.60
2024-01-30T18:05:17.627Z,7.60
2024-01-30T18:07:45.368Z,7.60
2024-01-30T18:10:14.347Z,7.60
2024-01-30T18:12:42.897Z,7.60
2024-01-30T18:15:10.336Z,7.50
2024-01-30T18:17:37.598Z,7.50
2024-01-30T18:20:09.118Z,7.50
2024-01-30T18:22:36.735Z,7.50
2024-01-30T18:25:06.696Z,7.50
2024-01-30T18:27:34.123Z,7.50
2024-01-30T18:30:01.516Z,7.50
2024-01-30T18:32:29.006Z,7.50
2024-01-30T18:34:56.877Z,7.40
2024-01-30T18:37:24.006Z,7.50
2024-01-30T18:39:51.234Z,7.50
2024-01-30T18:42:19.524Z,7.50
2024-01-30T18:44:47.848Z,7.50
2024-01-30T18:47:14.979Z,7.50
2024-01-30T18:49:42.093Z,7.50
2024-01-30T18:52:09.836Z,7.60
2024-01-30T18:54:37.655Z,7.60
2024-01-30T18:57:05.136Z,7.60
2024-01-30T18:59:32.440Z,7.60
2024-01-30T19:01:59.400Z,7.70
2024-01-30T19:04:26.553Z,7.80
2024-01-30T19:06:53.891Z,7.90
2024-01-30T19:09:23.116Z,8.00
2024-01-30T19:11:50.987Z,8.00
2024-01-30T19:14:18.044Z,8.10
2024-01-30T19:16:45.391Z,8.00
2024-01-30T19:19:12.548Z,8.10
2024-01-30T19:21:40.232Z,8.10
2024-01-30T19:24:07.913Z,8.10
2024-01-30T19:26:35.824Z,8.10
2024-01-30T19:29:03.302Z,8.20
2024-01-30T19:31:30.477Z,8.20
2024-01-30T19:33:57.898Z,8.20
2024-01-30T19:36:25.162Z,8.20
2024-01-30T19:38:52.923Z,8.30
2024-01-30T19:41:20.158Z,8.30
2024-01-30T19:43:47.545Z,8.40
2024-01-30T19:46:15.094Z,8.50
2024-01-30T19:48:42.494Z,8.60
2024-01-30T19:51:09.793Z,8.60
2024-01-30T19:53:40.725Z,8.60
2024-01-30T20:34:46.529Z,8.60
2024-01-30T20:41:41.558Z,8.60
2024-01-30T20:44:09.126Z,8.50
2024-01-30T20:46:36.407Z,8.50
2024-01-30T20:49:03.718Z,8.50
2024-01-30T20:51:31.363Z,8.50
2024-01-30T20:53:59.137Z,8.50
2024-01-30T20:56:27.137Z,8.50
2024-01-30T20:58:54.881Z,8.50
2024-01-30T21:01:22.345Z,8.50
2024-01-30T21:03:50.424Z,8.50
2024-01-30T21:06:17.749Z,8.50
2024-01-30T21:08:45.459Z,8.60
2024-01-30T21:11:13.252Z,8.60
2024-01-30T21:13:40.731Z,8.60
2024-01-30T21:16:08.284Z,8.70
2024-01-30T21:18:36.419Z,8.70
2024-01-30T21:21:03.865Z,8.70
2024-01-30T21:23:31.192Z,8.70
2024-01-30T21:25:59.432Z,8.70
2024-01-30T21:28:29.096Z,8.70
2024-01-30T21:30:56.160Z,8.70
2024-01-30T21:33:23.407Z,8.70
2024-01-30T21:35:50.487Z,8.80
2024-01-30T21:38:42.320Z,8.80
2024-01-30T21:48:56.490Z,8.70
2024-01-30T21:51:23.753Z,8.70
2024-01-30T21:53:50.610Z,8.70
2024-01-30T21:56:17.486Z,8.70
2024-01-30T21:58:44.353Z,8.60
2024-01-30T22:01:11.384Z,8.60
2024-01-30T22:03:40.183Z,8.60
2024-01-30T22:06:09.250Z,8.60
2024-01-30T22:08:36.176Z,8.60
2024-01-30T22:11:04.903Z,8.60
2024-01-30T22:13:31.863Z,8.60
2024-01-30T22:15:58.681Z,8.60
2024-01-30T22:18:26.119Z,8.60
2024-01-30T22:20:53.089Z,8.60
2024-01-30T22:23:20.019Z,8.60
2024-01-30T22:25:46.954Z,8.60
2024-01-30T22:28:13.910Z,8.50
2024-01-30T22:30:40.851Z,8.60
2024-01-30T22:33:09.762Z,8.50
2024-01-30T22:35:37.007Z,8.50
2024-01-30T22:38:08.449Z,8.50
2024-01-30T22:40:36.054Z,8.50
2024-01-30T22:43:04.453Z,8.40
2024-01-30T22:45:31.412Z,8.40
2024-01-30T22:47:58.266Z,8.40
2024-01-30T22:50:25.137Z,8.30
2024-01-30T22:52:52.807Z,8.30
2024-01-30T22:55:19.899Z,8.30
2024-01-30T22:57:46.874Z,8.30
2024-01-30T23:00:19.426Z,8.40
2024-01-30T23:02:46.175Z,8.30
2024-01-30T23:05:13.248Z,8.30
2024-01-30T23:07:42.934Z,8.40
2024-01-30T23:10:11.083Z,8.30
2024-01-30T23:12:38.417Z,8.40
2024-01-30T23:15:06.552Z,8.40
2024-01-30T23:17:34.277Z,8.30
2024-01-30T23:20:02.390Z,8.30
2024-01-30T23:22:29.367Z,8.30
2024-01-30T23:24:56.261Z,8.20
2024-01-30T23:27:23.091Z,8.20
2024-01-30T23:29:50.065Z,8.10
2024-01-30T23:32:25.407Z,8.00
2024-01-30T23:34:57.298Z,8.00
2024-01-30T23:37:24.315Z,8.00
2024-01-30T23:39:51.331Z,8.00
2024-01-30T23:42:19.275Z,7.90
2024-01-30T23:44:46.348Z,7.90
2024-01-30T23:47:13.396Z,7.90
2024-01-30T23:49:41.155Z,7.90
2024-01-30T23:52:08.019Z,7.80
2024-01-30T23:54:34.987Z,7.80
2024-01-30T23:57:02.598Z,7.80
2024-01-30T23:59:29.400Z,7.80
